sensor_id;sensor_type;location;lat;lon;timestamp;P1;durP1;ratioP1;P2;durP2;ratioP2
69172;SDS011;56280;49.662;8.408;2023-02-15T00:01:41;163.93;;;53.85;;
69172;SDS011;56280;49.662;8.408;2023-02-15T00:04:12;142.75;;;51.17;;
69172;SDS011;56280;49.662;8.408;2023-02-15T00:06:42;130.65;;;51.45;;
69172;SDS011;56280;49.662;8.408;2023-02-15T00:09:10;127.55;;;52.15;;
69172;SDS011;56280;49.662;8.408;2023-02-15T00:11:38;141.00;;;52.55;;
69172;SDS011;56280;49.662;8.408;2023-02-15T00:14:09;118.60;;;51.37;;
69172;SDS011;56280;49.662;8.408;2023-02-15T00:16:37;143.30;;;52.67;;
69172;SDS011;56280;49.662;8.408;2023-02-15T00:19:03;127.78;;;51.33;;
69172;SDS011;56280;49.662;8.408;2023-02-15T00:21:30;151.68;;;52.00;;
69172;SDS011;56280;49.662;8.408;2023-02-15T00:23:56;140.63;;;54.08;;
69172;SDS011;56280;49.662;8.408;2023-02-15T00:26:26;244.00;;;56.97;;
69172;SDS011;56280;49.662;8.408;2023-02-15T00:28:54;381.55;;;61.53;;
69172;SDS011;56280;49.662;8.408;2023-02-15T00:31:24;458.65;;;66.78;;
69172;SDS011;56280;49.662;8.408;2023-02-15T00:33:49;367.07;;;61.63;;
69172;SDS011;56280;49.662;8.408;2023-02-15T00:36:15;219.47;;;53.27;;
69172;SDS011;56280;49.662;8.408;2023-02-15T00:38:40;473.60;;;66.97;;
69172;SDS011;56280;49.662;8.408;2023-02-15T00:41:10;414.70;;;64.43;;
69172;SDS011;56280;49.662;8.408;2023-02-15T00:43:39;218.75;;;53.72;;
69172;SDS011;56280;49.662;8.408;2023-02-15T00:46:09;386.63;;;60.37;;
69172;SDS011;56280;49.662;8.408;2023-02-15T00:48:45;178.52;;;50.75;;
69172;SDS011;56280;49.662;8.408;2023-02-15T00:51:16;155.93;;;51.40;;
69172;SDS011;56280;49.662;8.408;2023-02-15T00:53:45;132.80;;;51.13;;
69172;SDS011;56280;49.662;8.408;2023-02-15T00:56:14;194.35;;;52.80;;
69172;SDS011;56280;49.662;8.408;2023-02-15T00:58:50;173.43;;;51.20;;
69172;SDS011;56280;49.662;8.408;2023-02-15T01:01:17;128.45;;;49.20;;
69172;SDS011;56280;49.662;8.408;2023-02-15T01:03:46;187.48;;;50.20;;
69172;SDS011;56280;49.662;8.408;2023-02-15T01:06:13;152.68;;;50.88;;
69172;SDS011;56280;49.662;8.408;2023-02-15T01:08:41;162.13;;;49.90;;
69172;SDS011;56280;49.662;8.408;2023-02-15T01:11:11;143.63;;;49.50;;
69172;SDS011;56280;49.662;8.408;2023-02-15T01:13:38;114.75;;;48.00;;
69172;SDS011;56280;49.662;8.408;2023-02-15T01:16:05;105.00;;;47.58;;
69172;SDS011;56280;49.662;8.408;2023-02-15T01:18:42;115.18;;;49.03;;
69172;SDS011;56280;49.662;8.408;2023-02-15T01:21:20;109.00;;;47.40;;
69172;SDS011;56280;49.662;8.408;2023-02-15T01:23:47;103.07;;;46.93;;
69172;SDS011;56280;49.662;8.408;2023-02-15T01:26:14;106.18;;;45.70;;
69172;SDS011;56280;49.662;8.408;2023-02-15T01:28:40;142.63;;;48.67;;
69172;SDS011;56280;49.662;8.408;2023-02-15T01:31:23;105.27;;;47.17;;
69172;SDS011;56280;49.662;8.408;2023-02-15T01:34:19;112.07;;;46.25;;
69172;SDS011;56280;49.662;8.408;2023-02-15T01:36:52;144.43;;;48.70;;
69172;SDS011;56280;49.662;8.408;2023-02-15T01:39:18;126.32;;;46.90;;
69172;SDS011;56280;49.662;8.408;2023-02-15T01:41:43;167.38;;;48.22;;
69172;SDS011;56280;49.662;8.408;2023-02-15T01:55:54;97.10;;;46.72;;
69172;SDS011;56280;49.662;8.408;2023-02-15T01:58:25;117.28;;;47.72;;
69172;SDS011;56280;49.662;8.408;2023-02-15T02:00:54;98.95;;;46.92;;
69172;SDS011;56280;49.662;8.408;2023-02-15T02:03:25;100.57;;;48.10;;
69172;SDS011;56280;49.662;8.408;2023-02-15T02:06:01;97.10;;;46.60;;
69172;SDS011;56280;49.662;8.408;2023-02-15T02:08:27;98.30;;;47.00;;
69172;SDS011;56280;49.662;8.408;2023-02-15T02:10:53;103.07;;;47.60;;
69172;SDS011;56280;49.662;8.408;2023-02-15T02:13:18;112.03;;;47.67;;
69172;SDS011;56280;49.662;8.408;2023-02-15T02:19:10;100.43;;;46.55;;
69172;SDS011;56280;49.662;8.408;2023-02-15T02:27:30;119.23;;;46.50;;
69172;SDS011;56280;49.662;8.408;2023-02-15T02:41:35;100.35;;;44.38;;
69172;SDS011;56280;49.662;8.408;2023-02-15T02:44:19;277.10;;;52.07;;
69172;SDS011;56280;49.662;8.408;2023-02-15T02:47:05;249.93;;;49.22;;
69172;SDS011;56280;49.662;8.408;2023-02-15T02:49:51;397.17;;;56.80;;
69172;SDS011;56280;49.662;8.408;2023-02-15T02:52:35;172.38;;;48.45;;
69172;SDS011;56280;49.662;8.408;2023-02-15T02:55:13;171.98;;;47.47;;
69172;SDS011;56280;49.662;8.408;2023-02-15T03:06:10;129.65;;;47.80;;
69172;SDS011;56280;49.662;8.408;2023-02-15T03:08:43;268.50;;;51.83;;
69172;SDS011;56280;49.662;8.408;2023-02-15T03:11:12;173.27;;;48.15;;
69172;SDS011;56280;49.662;8.408;2023-02-15T03:13:37;388.98;;;59.53;;
69172;SDS011;56280;49.662;8.408;2023-02-15T03:16:04;347.45;;;56.45;;
69172;SDS011;56280;49.662;8.408;2023-02-15T03:18:58;180.63;;;51.10;;
69172;SDS011;56280;49.662;8.408;2023-02-15T03:21:32;123.77;;;44.80;;
69172;SDS011;56280;49.662;8.408;2023-02-15T03:24:10;165.60;;;49.30;;
69172;SDS011;56280;49.662;8.408;2023-02-15T03:26:40;165.80;;;51.40;;
69172;SDS011;56280;49.662;8.408;2023-02-15T03:29:10;237.83;;;49.97;;
69172;SDS011;56280;49.662;8.408;2023-02-15T03:31:39;116.80;;;46.10;;
69172;SDS011;56280;49.662;8.408;2023-02-15T03:34:10;160.82;;;45.65;;
69172;SDS011;56280;49.662;8.408;2023-02-15T03:39:33;131.52;;;47.28;;
69172;SDS011;56280;49.662;8.408;2023-02-15T03:42:13;99.53;;;46.78;;
69172;SDS011;56280;49.662;8.408;2023-02-15T03:44:51;107.73;;;46.77;;
69172;SDS011;56280;49.662;8.408;2023-02-15T03:47:30;113.63;;;46.40;;
69172;SDS011;56280;49.662;8.408;2023-02-15T03:50:05;105.45;;;44.60;;
69172;SDS011;56280;49.662;8.408;2023-02-15T03:52:54;110.50;;;45.50;;
69172;SDS011;56280;49.662;8.408;2023-02-15T03:55:22;112.93;;;44.83;;
69172;SDS011;56280;49.662;8.408;2023-02-15T03:57:47;106.40;;;45.77;;
69172;SDS011;56280;49.662;8.408;2023-02-15T04:00:31;113.68;;;45.47;;
69172;SDS011;56280;49.662;8.408;2023-02-15T04:03:27;149.00;;;48.65;;
69172;SDS011;56280;49.662;8.408;2023-02-15T04:06:03;157.65;;;48.22;;
69172;SDS011;56280;49.662;8.408;2023-02-15T04:08:31;105.75;;;44.33;;
69172;SDS011;56280;49.662;8.408;2023-02-15T04:11:24;118.65;;;44.53;;
69172;SDS011;56280;49.662;8.408;2023-02-15T04:13:49;107.57;;;44.83;;
69172;SDS011;56280;49.662;8.408;2023-02-15T04:16:21;111.72;;;46.90;;
69172;SDS011;56280;49.662;8.408;2023-02-15T04:18:47;111.82;;;44.95;;
69172;SDS011;56280;49.662;8.408;2023-02-15T04:21:34;111.07;;;45.47;;
69172;SDS011;56280;49.662;8.408;2023-02-15T04:24:18;103.35;;;43.10;;
69172;SDS011;56280;49.662;8.408;2023-02-15T04:27:02;95.73;;;43.07;;
69172;SDS011;56280;49.662;8.408;2023-02-15T04:29:29;96.63;;;43.60;;
69172;SDS011;56280;49.662;8.408;2023-02-15T04:31:57;89.90;;;40.88;;
69172;SDS011;56280;49.662;8.408;2023-02-15T04:34:25;79.78;;;39.97;;
69172;SDS011;56280;49.662;8.408;2023-02-15T04:36:51;97.47;;;42.27;;
69172;SDS011;56280;49.662;8.408;2023-02-15T04:39:17;93.50;;;41.60;;
69172;SDS011;56280;49.662;8.408;2023-02-15T04:41:44;78.63;;;39.58;;
69172;SDS011;56280;49.662;8.408;2023-02-15T04:44:10;82.53;;;39.20;;
69172;SDS011;56280;49.662;8.408;2023-02-15T04:46:36;93.85;;;38.38;;
69172;SDS011;56280;49.662;8.408;2023-02-15T04:49:02;76.63;;;39.50;;
69172;SDS011;56280;49.662;8.408;2023-02-15T04:51:28;91.45;;;39.30;;
69172;SDS011;56280;49.662;8.408;2023-02-15T04:53:53;89.17;;;39.70;;
69172;SDS011;56280;49.662;8.408;2023-02-15T04:56:19;84.17;;;40.57;;
69172;SDS011;56280;49.662;8.408;2023-02-15T04:58:45;85.70;;;40.33;;
69172;SDS011;56280;49.662;8.408;2023-02-15T05:01:11;81.60;;;39.70;;
69172;SDS011;56280;49.662;8.408;2023-02-15T05:03:37;92.85;;;39.78;;
69172;SDS011;56280;49.662;8.408;2023-02-15T05:06:03;86.70;;;38.40;;
69172;SDS011;56280;49.662;8.408;2023-02-15T05:08:29;87.07;;;39.42;;
69172;SDS011;56280;49.662;8.408;2023-02-15T05:10:54;88.23;;;39.97;;
69172;SDS011;56280;49.662;8.408;2023-02-15T05:13:20;75.73;;;37.33;;
69172;SDS011;56280;49.662;8.408;2023-02-15T05:15:48;75.73;;;37.90;;
69172;SDS011;56280;49.662;8.408;2023-02-15T05:18:14;81.45;;;37.85;;
69172;SDS011;56280;49.662;8.408;2023-02-15T05:20:40;82.75;;;40.05;;
69172;SDS011;56280;49.662;8.408;2023-02-15T05:23:06;82.37;;;39.80;;
69172;SDS011;56280;49.662;8.408;2023-02-15T05:25:31;67.03;;;36.63;;
69172;SDS011;56280;49.662;8.408;2023-02-15T05:28:15;75.65;;;37.28;;
69172;SDS011;56280;49.662;8.408;2023-02-15T05:30:47;77.60;;;37.67;;
69172;SDS011;56280;49.662;8.408;2023-02-15T05:33:13;71.60;;;37.00;;
69172;SDS011;56280;49.662;8.408;2023-02-15T05:35:38;83.00;;;39.03;;
69172;SDS011;56280;49.662;8.408;2023-02-15T05:38:04;79.53;;;38.00;;
69172;SDS011;56280;49.662;8.408;2023-02-15T05:40:29;74.47;;;36.17;;
69172;SDS011;56280;49.662;8.408;2023-02-15T05:42:54;69.77;;;35.33;;
69172;SDS011;56280;49.662;8.408;2023-02-15T05:45:21;71.80;;;36.70;;
69172;SDS011;56280;49.662;8.408;2023-02-15T05:47:46;60.50;;;33.90;;
69172;SDS011;56280;49.662;8.408;2023-02-15T05:50:11;70.13;;;34.63;;
69172;SDS011;56280;49.662;8.408;2023-02-15T05:52:37;67.63;;;36.93;;
69172;SDS011;56280;49.662;8.408;2023-02-15T05:55:02;71.07;;;33.40;;
69172;SDS011;56280;49.662;8.408;2023-02-15T05:57:30;80.80;;;36.58;;
69172;SDS011;56280;49.662;8.408;2023-02-15T05:59:56;78.43;;;36.73;;
69172;SDS011;56280;49.662;8.408;2023-02-15T06:02:21;74.50;;;36.47;;
69172;SDS011;56280;49.662;8.408;2023-02-15T06:04:46;87.57;;;36.67;;
69172;SDS011;56280;49.662;8.408;2023-02-15T06:07:12;87.87;;;35.77;;
69172;SDS011;56280;49.662;8.408;2023-02-15T06:09:37;86.70;;;36.37;;
69172;SDS011;56280;49.662;8.408;2023-02-15T06:12:02;89.23;;;36.80;;
69172;SDS011;56280;49.662;8.408;2023-02-15T06:14:28;80.17;;;35.57;;
69172;SDS011;56280;49.662;8.408;2023-02-15T06:16:53;71.87;;;35.63;;
69172;SDS011;56280;49.662;8.408;2023-02-15T06:19:18;82.40;;;37.30;;
69172;SDS011;56280;49.662;8.408;2023-02-15T06:21:44;72.80;;;36.63;;
69172;SDS011;56280;49.662;8.408;2023-02-15T06:24:09;78.43;;;36.23;;
69172;SDS011;56280;49.662;8.408;2023-02-15T06:26:35;81.20;;;37.80;;
69172;SDS011;56280;49.662;8.408;2023-02-15T06:29:00;88.27;;;37.87;;
69172;SDS011;56280;49.662;8.408;2023-02-15T06:31:25;86.57;;;39.00;;
69172;SDS011;56280;49.662;8.408;2023-02-15T06:33:51;87.87;;;37.90;;
69172;SDS011;56280;49.662;8.408;2023-02-15T06:36:16;95.10;;;39.03;;
69172;SDS011;56280;49.662;8.408;2023-02-15T06:38:41;81.23;;;36.20;;
69172;SDS011;56280;49.662;8.408;2023-02-15T06:41:07;84.93;;;38.17;;
69172;SDS011;56280;49.662;8.408;2023-02-15T06:43:32;77.00;;;37.00;;
69172;SDS011;56280;49.662;8.408;2023-02-15T06:45:59;78.95;;;37.92;;
69172;SDS011;56280;49.662;8.408;2023-02-15T06:48:24;102.97;;;39.63;;
69172;SDS011;56280;49.662;8.408;2023-02-15T06:50:49;78.10;;;37.97;;
69172;SDS011;56280;49.662;8.408;2023-02-15T06:53:15;82.43;;;39.17;;
69172;SDS011;56280;49.662;8.408;2023-02-15T06:55:40;95.50;;;40.70;;
69172;SDS011;56280;49.662;8.408;2023-02-15T06:58:07;83.47;;;38.10;;
69172;SDS011;56280;49.662;8.408;2023-02-15T07:00:33;101.77;;;40.93;;
69172;SDS011;56280;49.662;8.408;2023-02-15T07:02:58;90.03;;;41.87;;
69172;SDS011;56280;49.662;8.408;2023-02-15T07:05:24;84.47;;;41.10;;
69172;SDS011;56280;49.662;8.408;2023-02-15T07:07:56;106.93;;;42.72;;
69172;SDS011;56280;49.662;8.408;2023-02-15T07:10:22;103.03;;;41.72;;
69172;SDS011;56280;49.662;8.408;2023-02-15T07:12:47;111.03;;;42.70;;
69172;SDS011;56280;49.662;8.408;2023-02-15T07:15:14;112.50;;;42.00;;
69172;SDS011;56280;49.662;8.408;2023-02-15T07:17:41;97.05;;;41.60;;
69172;SDS011;56280;49.662;8.408;2023-02-15T07:20:09;113.78;;;43.72;;
69172;SDS011;56280;49.662;8.408;2023-02-15T07:22:36;111.75;;;45.15;;
69172;SDS011;56280;49.662;8.408;2023-02-15T07:25:05;117.30;;;41.37;;
69172;SDS011;56280;49.662;8.408;2023-02-15T07:27:32;108.30;;;44.08;;
69172;SDS011;56280;49.662;8.408;2023-02-15T07:29:58;105.60;;;44.80;;
69172;SDS011;56280;49.662;8.408;2023-02-15T07:32:23;117.70;;;42.97;;
69172;SDS011;56280;49.662;8.408;2023-02-15T07:34:48;111.97;;;44.25;;
69172;SDS011;56280;49.662;8.408;2023-02-15T07:37:14;121.07;;;41.90;;
69172;SDS011;56280;49.662;8.408;2023-02-15T07:39:39;103.93;;;43.00;;
69172;SDS011;56280;49.662;8.408;2023-02-15T07:42:04;101.13;;;44.27;;
69172;SDS011;56280;49.662;8.408;2023-02-15T07:44:29;96.47;;;41.90;;
69172;SDS011;56280;49.662;8.408;2023-02-15T07:46:55;110.90;;;44.97;;
69172;SDS011;56280;49.662;8.408;2023-02-15T07:49:20;97.10;;;43.77;;
69172;SDS011;56280;49.662;8.408;2023-02-15T07:51:45;100.83;;;44.30;;
69172;SDS011;56280;49.662;8.408;2023-02-15T07:54:11;112.90;;;43.77;;
69172;SDS011;56280;49.662;8.408;2023-02-15T07:56:36;91.17;;;42.17;;
69172;SDS011;56280;49.662;8.408;2023-02-15T07:59:02;91.27;;;44.60;;
69172;SDS011;56280;49.662;8.408;2023-02-15T08:01:31;109.05;;;44.13;;
69172;SDS011;56280;49.662;8.408;2023-02-15T08:03:58;92.80;;;42.90;;
69172;SDS011;56280;49.662;8.408;2023-02-15T08:06:25;102.57;;;45.53;;
69172;SDS011;56280;49.662;8.408;2023-02-15T08:08:52;97.75;;;45.20;;
69172;SDS011;56280;49.662;8.408;2023-02-15T08:11:19;98.63;;;43.53;;
69172;SDS011;56280;49.662;8.408;2023-02-15T08:14:05;86.82;;;44.08;;
69172;SDS011;56280;49.662;8.408;2023-02-15T08:16:34;98.10;;;45.07;;
69172;SDS011;56280;49.662;8.408;2023-02-15T08:19:01;84.43;;;44.72;;
69172;SDS011;56280;49.662;8.408;2023-02-15T08:21:53;82.38;;;45.63;;
69172;SDS011;56280;49.662;8.408;2023-02-15T08:24:25;90.75;;;45.75;;
69172;SDS011;56280;49.662;8.408;2023-02-15T08:26:58;94.32;;;46.63;;
69172;SDS011;56280;49.662;8.408;2023-02-15T08:29:24;105.28;;;46.28;;
69172;SDS011;56280;49.662;8.408;2023-02-15T08:31:59;101.97;;;45.47;;
69172;SDS011;56280;49.662;8.408;2023-02-15T08:34:32;109.22;;;46.55;;
69172;SDS011;56280;49.662;8.408;2023-02-15T08:37:02;114.13;;;46.83;;
69172;SDS011;56280;49.662;8.408;2023-02-15T08:39:27;115.47;;;47.40;;
69172;SDS011;56280;49.662;8.408;2023-02-15T08:41:53;96.93;;;43.83;;
69172;SDS011;56280;49.662;8.408;2023-02-15T08:44:19;111.20;;;49.67;;
69172;SDS011;56280;49.662;8.408;2023-02-15T08:46:45;103.27;;;48.20;;
69172;SDS011;56280;49.662;8.408;2023-02-15T08:49:14;103.47;;;47.73;;
69172;SDS011;56280;49.662;8.408;2023-02-15T08:51:42;97.32;;;47.47;;
69172;SDS011;56280;49.662;8.408;2023-02-15T08:54:08;115.55;;;48.83;;
69172;SDS011;56280;49.662;8.408;2023-02-15T08:56:37;110.30;;;50.53;;
69172;SDS011;56280;49.662;8.408;2023-02-15T08:59:05;103.85;;;48.38;;
69172;SDS011;56280;49.662;8.408;2023-02-15T09:01:32;93.10;;;48.97;;
69172;SDS011;56280;49.662;8.408;2023-02-15T09:03:59;86.13;;;45.03;;
69172;SDS011;56280;49.662;8.408;2023-02-15T09:06:26;77.30;;;48.70;;
69172;SDS011;56280;49.662;8.408;2023-02-15T09:08:53;86.40;;;48.22;;
69172;SDS011;56280;49.662;8.408;2023-02-15T09:11:20;79.00;;;48.88;;
69172;SDS011;56280;49.662;8.408;2023-02-15T09:14:07;76.77;;;48.97;;
69172;SDS011;56280;49.662;8.408;2023-02-15T09:16:36;93.25;;;52.22;;
69172;SDS011;56280;49.662;8.408;2023-02-15T09:19:03;95.40;;;52.47;;
69172;SDS011;56280;49.662;8.408;2023-02-15T09:21:29;93.85;;;51.88;;
69172;SDS011;56280;49.662;8.408;2023-02-15T09:23:56;98.55;;;54.85;;
69172;SDS011;56280;49.662;8.408;2023-02-15T09:26:24;111.03;;;56.60;;
69172;SDS011;56280;49.662;8.408;2023-02-15T09:28:52;100.70;;;55.80;;
69172;SDS011;56280;49.662;8.408;2023-02-15T09:31:24;88.78;;;53.95;;
69172;SDS011;56280;49.662;8.408;2023-02-15T09:33:58;94.82;;;51.80;;
69172;SDS011;56280;49.662;8.408;2023-02-15T09:36:28;100.25;;;50.65;;
69172;SDS011;56280;49.662;8.408;2023-02-15T09:38:57;108.78;;;57.20;;
69172;SDS011;56280;49.662;8.408;2023-02-15T09:52:27;91.97;;;54.53;;
69172;SDS011;56280;49.662;8.408;2023-02-15T10:00:37;90.43;;;54.30;;
69172;SDS011;56280;49.662;8.408;2023-02-15T10:06:26;72.20;;;49.78;;
69172;SDS011;56280;49.662;8.408;2023-02-15T10:12:06;70.25;;;49.65;;
69172;SDS011;56280;49.662;8.408;2023-02-15T10:14:50;73.17;;;47.53;;
69172;SDS011;56280;49.662;8.408;2023-02-15T10:17:23;78.43;;;49.13;;
69172;SDS011;56280;49.662;8.408;2023-02-15T10:25:23;78.53;;;52.20;;
69172;SDS011;56280;49.662;8.408;2023-02-15T10:28:17;76.63;;;50.47;;
69172;SDS011;56280;49.662;8.408;2023-02-15T10:30:50;69.28;;;49.17;;
69172;SDS011;56280;49.662;8.408;2023-02-15T10:33:40;64.10;;;47.25;;
69172;SDS011;56280;49.662;8.408;2023-02-15T10:48:00;68.05;;;45.88;;
69172;SDS011;56280;49.662;8.408;2023-02-15T10:56:24;57.33;;;42.20;;
69172;SDS011;56280;49.662;8.408;2023-02-15T10:59:04;56.67;;;42.72;;
69172;SDS011;56280;49.662;8.408;2023-02-15T11:02:01;59.28;;;43.15;;
69172;SDS011;56280;49.662;8.408;2023-02-15T11:04:44;57.53;;;42.33;;
69172;SDS011;56280;49.662;8.408;2023-02-15T11:07:39;53.10;;;40.63;;
69172;SDS011;56280;49.662;8.408;2023-02-15T11:13:02;55.20;;;40.85;;
69172;SDS011;56280;49.662;8.408;2023-02-15T11:15:41;54.72;;;42.13;;
69172;SDS011;56280;49.662;8.408;2023-02-15T11:18:13;52.75;;;40.83;;
69172;SDS011;56280;49.662;8.408;2023-02-15T11:20:57;53.27;;;40.50;;
69172;SDS011;56280;49.662;8.408;2023-02-15T11:23:45;52.55;;;42.60;;
69172;SDS011;56280;49.662;8.408;2023-02-15T11:26:13;51.45;;;41.08;;
69172;SDS011;56280;49.662;8.408;2023-02-15T11:29:25;52.77;;;39.63;;
69172;SDS011;56280;49.662;8.408;2023-02-15T11:31:44;54.50;;;42.13;;
69172;SDS011;56280;49.662;8.408;2023-02-15T11:34:26;53.08;;;39.97;;
69172;SDS011;56280;49.662;8.408;2023-02-15T11:36:58;56.70;;;42.53;;
69172;SDS011;56280;49.662;8.408;2023-02-15T11:39:26;55.67;;;43.20;;
69172;SDS011;56280;49.662;8.408;2023-02-15T11:41:55;58.13;;;45.15;;
69172;SDS011;56280;49.662;8.408;2023-02-15T11:44:26;59.22;;;45.60;;
69172;SDS011;56280;49.662;8.408;2023-02-15T11:46:57;65.22;;;48.85;;
69172;SDS011;56280;49.662;8.408;2023-02-15T11:49:27;68.43;;;51.00;;
69172;SDS011;56280;49.662;8.408;2023-02-15T11:51:56;69.63;;;49.23;;
69172;SDS011;56280;49.662;8.408;2023-02-15T11:54:26;74.07;;;52.85;;
69172;SDS011;56280;49.662;8.408;2023-02-15T11:56:55;67.93;;;46.88;;
69172;SDS011;56280;49.662;8.408;2023-02-15T11:59:28;70.57;;;50.30;;
69172;SDS011;56280;49.662;8.408;2023-02-15T12:01:57;69.60;;;49.13;;
69172;SDS011;56280;49.662;8.408;2023-02-15T12:04:36;69.57;;;52.27;;
69172;SDS011;56280;49.662;8.408;2023-02-15T12:07:13;74.93;;;52.35;;
69172;SDS011;56280;49.662;8.408;2023-02-15T12:12:42;73.93;;;52.25;;
69172;SDS011;56280;49.662;8.408;2023-02-15T12:15:10;78.93;;;55.90;;
69172;SDS011;56280;49.662;8.408;2023-02-15T12:17:39;75.70;;;52.90;;
69172;SDS011;56280;49.662;8.408;2023-02-15T12:22:46;79.85;;;53.03;;
69172;SDS011;56280;49.662;8.408;2023-02-15T12:25:26;86.18;;;55.58;;
69172;SDS011;56280;49.662;8.408;2023-02-15T12:28:15;81.30;;;54.47;;
69172;SDS011;56280;49.662;8.408;2023-02-15T12:30:48;83.30;;;54.67;;
69172;SDS011;56280;49.662;8.408;2023-02-15T12:33:19;87.70;;;58.53;;
69172;SDS011;56280;49.662;8.408;2023-02-15T12:36:12;89.25;;;57.33;;
69172;SDS011;56280;49.662;8.408;2023-02-15T12:38:39;85.00;;;54.40;;
69172;SDS011;56280;49.662;8.408;2023-02-15T12:41:18;86.65;;;56.35;;
69172;SDS011;56280;49.662;8.408;2023-02-15T12:44:04;88.17;;;57.43;;
69172;SDS011;56280;49.662;8.408;2023-02-15T12:46:34;89.27;;;58.67;;
69172;SDS011;56280;49.662;8.408;2023-02-15T12:49:07;86.87;;;57.73;;
69172;SDS011;56280;49.662;8.408;2023-02-15T12:51:46;95.05;;;59.70;;
69172;SDS011;56280;49.662;8.408;2023-02-15T13:02:23;97.33;;;59.30;;
69172;SDS011;56280;49.662;8.408;2023-02-15T13:07:38;98.35;;;60.72;;
69172;SDS011;56280;49.662;8.408;2023-02-15T13:13:19;96.93;;;61.35;;
69172;SDS011;56280;49.662;8.408;2023-02-15T13:15:48;98.03;;;61.10;;
69172;SDS011;56280;49.662;8.408;2023-02-15T13:18:17;102.88;;;64.43;;
69172;SDS011;56280;49.662;8.408;2023-02-15T13:20:49;99.03;;;56.90;;
69172;SDS011;56280;49.662;8.408;2023-02-15T13:25:58;101.72;;;60.67;;
69172;SDS011;56280;49.662;8.408;2023-02-15T13:28:31;96.82;;;58.53;;
69172;SDS011;56280;49.662;8.408;2023-02-15T13:31:15;98.00;;;59.63;;
69172;SDS011;56280;49.662;8.408;2023-02-15T13:33:46;101.07;;;62.95;;
69172;SDS011;56280;49.662;8.408;2023-02-15T13:36:21;101.03;;;62.85;;
69172;SDS011;56280;49.662;8.408;2023-02-15T14:01:58;110.40;;;66.35;;
69172;SDS011;56280;49.662;8.408;2023-02-15T14:07:33;106.05;;;65.10;;
69172;SDS011;56280;49.662;8.408;2023-02-15T14:13:30;108.50;;;66.55;;
69172;SDS011;56280;49.662;8.408;2023-02-15T14:16:27;106.07;;;65.78;;
69172;SDS011;56280;49.662;8.408;2023-02-15T14:30:27;107.97;;;64.82;;
69172;SDS011;56280;49.662;8.408;2023-02-15T14:32:59;108.15;;;67.93;;
69172;SDS011;56280;49.662;8.408;2023-02-15T14:35:30;107.90;;;67.25;;
69172;SDS011;56280;49.662;8.408;2023-02-15T14:40:51;109.40;;;67.57;;
69172;SDS011;56280;49.662;8.408;2023-02-15T14:49:30;106.63;;;67.53;;
69172;SDS011;56280;49.662;8.408;2023-02-15T15:00:28;113.35;;;71.90;;
69172;SDS011;56280;49.662;8.408;2023-02-15T15:02:40;115.00;;;71.13;;
69172;SDS011;56280;49.662;8.408;2023-02-15T15:08:25;123.90;;;74.70;;
69172;SDS011;56280;49.662;8.408;2023-02-15T15:10:58;114.33;;;70.73;;
69172;SDS011;56280;49.662;8.408;2023-02-15T15:13:55;123.55;;;74.43;;
69172;SDS011;56280;49.662;8.408;2023-02-15T15:19:00;119.22;;;71.32;;
69172;SDS011;56280;49.662;8.408;2023-02-15T15:30:46;115.03;;;73.90;;
69172;SDS011;56280;49.662;8.408;2023-02-15T15:46:58;114.65;;;70.90;;
69172;SDS011;56280;49.662;8.408;2023-02-15T15:49:34;116.57;;;73.03;;
69172;SDS011;56280;49.662;8.408;2023-02-15T15:52:11;113.43;;;72.35;;
69172;SDS011;56280;49.662;8.408;2023-02-15T15:54:40;111.95;;;72.20;;
69172;SDS011;56280;49.662;8.408;2023-02-15T15:57:12;112.20;;;70.85;;
69172;SDS011;56280;49.662;8.408;2023-02-15T15:59:53;110.60;;;69.97;;
69172;SDS011;56280;49.662;8.408;2023-02-15T16:02:22;109.18;;;70.53;;
69172;SDS011;56280;49.662;8.408;2023-02-15T16:04:51;106.27;;;66.40;;
69172;SDS011;56280;49.662;8.408;2023-02-15T16:09:54;108.78;;;68.35;;
69172;SDS011;56280;49.662;8.408;2023-02-15T16:12:30;114.70;;;70.75;;
69172;SDS011;56280;49.662;8.408;2023-02-15T16:15:00;122.43;;;83.13;;
69172;SDS011;56280;49.662;8.408;2023-02-15T16:17:30;119.97;;;76.15;;
69172;SDS011;56280;49.662;8.408;2023-02-15T16:20:02;120.10;;;78.18;;
69172;SDS011;56280;49.662;8.408;2023-02-15T16:22:31;121.40;;;79.32;;
69172;SDS011;56280;49.662;8.408;2023-02-15T16:27:49;119.65;;;70.93;;
69172;SDS011;56280;49.662;8.408;2023-02-15T16:30:25;124.87;;;71.47;;
69172;SDS011;56280;49.662;8.408;2023-02-15T16:32:55;125.57;;;73.50;;
69172;SDS011;56280;49.662;8.408;2023-02-15T16:35:28;124.60;;;71.78;;
69172;SDS011;56280;49.662;8.408;2023-02-15T16:37:54;122.37;;;69.83;;
69172;SDS011;56280;49.662;8.408;2023-02-15T16:42:47;132.30;;;72.70;;
69172;SDS011;56280;49.662;8.408;2023-02-15T16:45:13;122.43;;;69.47;;
69172;SDS011;56280;49.662;8.408;2023-02-15T16:47:44;128.60;;;77.38;;
69172;SDS011;56280;49.662;8.408;2023-02-15T16:52:58;121.43;;;71.17;;
69172;SDS011;56280;49.662;8.408;2023-02-15T16:55:25;120.70;;;70.32;;
69172;SDS011;56280;49.662;8.408;2023-02-15T16:57:54;120.57;;;69.90;;
69172;SDS011;56280;49.662;8.408;2023-02-15T17:00:25;121.07;;;70.70;;
69172;SDS011;56280;49.662;8.408;2023-02-15T17:03:38;127.05;;;72.22;;
69172;SDS011;56280;49.662;8.408;2023-02-15T17:05:45;121.72;;;71.50;;
69172;SDS011;56280;49.662;8.408;2023-02-15T17:08:18;126.25;;;72.47;;
69172;SDS011;56280;49.662;8.408;2023-02-15T17:13:31;123.17;;;71.50;;
69172;SDS011;56280;49.662;8.408;2023-02-15T17:18:32;135.05;;;75.35;;
69172;SDS011;56280;49.662;8.408;2023-02-15T17:21:00;122.00;;;69.88;;
69172;SDS011;56280;49.662;8.408;2023-02-15T17:23:35;128.48;;;70.65;;
69172;SDS011;56280;49.662;8.408;2023-02-15T17:26:13;127.13;;;70.40;;
69172;SDS011;56280;49.662;8.408;2023-02-15T17:28:45;137.00;;;75.97;;
69172;SDS011;56280;49.662;8.408;2023-02-15T17:31:12;146.57;;;75.50;;
69172;SDS011;56280;49.662;8.408;2023-02-15T17:33:41;143.75;;;76.65;;
69172;SDS011;56280;49.662;8.408;2023-02-15T17:38:33;140.50;;;74.47;;
69172;SDS011;56280;49.662;8.408;2023-02-15T17:40:59;137.02;;;69.88;;
69172;SDS011;56280;49.662;8.408;2023-02-15T17:43:24;140.37;;;73.53;;
69172;SDS011;56280;49.662;8.408;2023-02-15T17:45:50;139.70;;;73.33;;
69172;SDS011;56280;49.662;8.408;2023-02-15T17:48:25;130.68;;;67.80;;
69172;SDS011;56280;49.662;8.408;2023-02-15T17:50:57;124.97;;;67.50;;
69172;SDS011;56280;49.662;8.408;2023-02-15T17:53:26;131.65;;;71.15;;
69172;SDS011;56280;49.662;8.408;2023-02-15T17:55:51;122.13;;;66.80;;
69172;SDS011;56280;49.662;8.408;2023-02-15T17:58:17;116.00;;;64.47;;
69172;SDS011;56280;49.662;8.408;2023-02-15T18:00:44;125.87;;;67.10;;
69172;SDS011;56280;49.662;8.408;2023-02-15T18:03:52;123.00;;;66.93;;
69172;SDS011;56280;49.662;8.408;2023-02-15T18:06:36;115.32;;;65.22;;
69172;SDS011;56280;49.662;8.408;2023-02-15T18:09:22;117.55;;;65.55;;
69172;SDS011;56280;49.662;8.408;2023-02-15T18:12:19;118.20;;;69.60;;
69172;SDS011;56280;49.662;8.408;2023-02-15T18:14:47;118.60;;;65.60;;
69172;SDS011;56280;49.662;8.408;2023-02-15T18:17:13;98.45;;;60.80;;